Time;durP1;ratioP1;P1;durP2;ratioP2;P2;SDS_P1;SDS_P2;PMS_P1;PMS_P2;Temp;Humidity;BMP_temperature;BMP_pressure;BME280_temperature;BME280_humidity;BME280_pressure;Samples;Min_cycle;Max_cycle;Signal;HPM_P1;HPM_P2
2022/12/01 00:01:00;;;;;;;4.40;2.90;;;3.00;68.80;;;;;;5085906;28;20028;-56
2022/12/01 00:03:28;;;;;;;3.58;2.92;;;2.90;68.80;;;;;;5091574;28;20023;-56
2022/12/01 00:06:03;;;;;;;3.28;2.47;;;2.90;68.60;;;;;;5090480;28;20459;-57
2022/12/01 00:08:30;;;;;;;3.00;2.70;;;3.00;68.70;;;;;;5089986;28;20036;-57
2022/12/01 00:11:06;;;;;;;2.90;2.60;;;3.00;68.50;;;;;;5084297;28;20106;-56
2022/12/01 00:13:33;;;;;;;2.83;2.53;;;3.00;68.60;;;;;;5091603;28;20107;-57
2022/12/01 00:16:12;;;;;;;2.90;2.67;;;3.10;68.50;;;;;;5091360;28;20028;-57
2022/12/01 00:18:38;;;;;;;2.63;2.40;;;3.10;68.40;;;;;;5082515;28;20031;-55
2022/12/01 00:21:04;;;;;;;4.72;2.70;;;3.10;68.10;;;;;;5089806;28;20034;-56
2022/12/01 00:23:30;;;;;;;3.83;2.70;;;3.10;67.90;;;;;;5085752;28;20388;-56
2022/12/01 00:26:04;;;;;;;3.40;2.60;;;3.10;67.80;;;;;;5083611;28;20024;-57
2022/12/01 00:28:30;;;;;;;3.25;2.50;;;3.10;67.70;;;;;;5087058;28;20360;-56
2022/12/01 00:30:56;;;;;;;4.20;2.92;;;3.10;67.80;;;;;;5091076;28;20027;-56
2022/12/01 00:33:21;;;;;;;2.60;2.40;;;3.00;67.80;;;;;;5091470;28;20056;-56
2022/12/01 00:35:47;;;;;;;2.65;2.45;;;3.00;67.90;;;;;;5089826;28;20028;-58
2022/12/01 00:38:13;;;;;;;3.05;2.72;;;3.00;68.20;;;;;;5087765;28;20028;-57
2022/12/01 00:40:39;;;;;;;2.92;2.63;;;3.00;68.30;;;;;;5081541;28;20028;-56
2022/12/01 00:43:05;;;;;;;3.03;2.50;;;3.00;68.00;;;;;;5090940;28;20031;-57
2022/12/01 00:45:31;;;;;;;3.10;2.80;;;3.10;68.00;;;;;;5089976;28;20065;-57
2022/12/01 00:47:57;;;;;;;2.60;2.40;;;3.00;68.00;;;;;;5090086;28;20067;-57
2022/12/01 00:50:25;;;;;;;4.57;2.83;;;3.10;68.00;;;;;;5087892;28;20012;-57
2022/12/01 00:52:52;;;;;;;3.22;2.75;;;3.10;67.70;;;;;;5089406;28;20024;-56
2022/12/01 00:55:17;;;;;;;3.08;2.75;;;3.10;67.70;;;;;;5087803;28;20482;-57
2022/12/01 00:57:43;;;;;;;3.72;2.45;;;3.10;67.70;;;;;;5083949;28;20028;-56
2022/12/01 01:00:11;;;;;;;3.63;2.92;;;3.10;67.60;;;;;;5089160;28;20028;-57
2022/12/01 01:02:38;;;;;;;2.58;2.38;;;3.00;67.30;;;;;;5087001;28;20506;-56
2022/12/01 01:05:05;;;;;;;3.15;2.70;;;3.00;67.30;;;;;;5088427;28;20028;-57
2022/12/01 01:07:31;;;;;;;3.60;2.65;;;3.00;67.20;;;;;;5089216;28;20039;-56
2022/12/01 01:09:57;;;;;;;2.83;2.60;;;2.90;67.20;;;;;;5083619;28;20020;-57
2022/12/01 01:12:23;;;;;;;3.63;2.53;;;2.90;67.30;;;;;;5090431;28;20035;-55
2022/12/01 01:14:49;;;;;;;2.50;2.30;;;2.90;67.40;;;;;;5090258;28;20113;-57
2022/12/01 01:17:15;;;;;;;2.75;2.13;;;2.80;67.40;;;;;;5081365;28;20498;-57
2022/12/01 01:19:41;;;;;;;2.70;2.50;;;2.80;68.10;;;;;;5079814;28;20024;-57
2022/12/01 01:22:07;;;;;;;3.13;2.63;;;2.90;67.60;;;;;;5089308;28;20056;-56
2022/12/01 01:24:32;;;;;;;5.93;2.97;;;2.90;67.50;;;;;;5089553;28;20028;-57
2022/12/01 01:26:58;;;;;;;3.45;2.58;;;2.90;67.40;;;;;;5085514;28;20027;-56
2022/12/01 01:29:24;;;;;;;4.75;2.97;;;2.90;67.20;;;;;;5088893;28;20032;-57
2022/12/01 01:31:50;;;;;;;3.20;2.90;;;2.90;66.90;;;;;;5089629;28;20059;-58
2022/12/01 01:34:19;;;;;;;3.25;2.67;;;2.80;66.80;;;;;;5081276;28;20070;-58
2022/12/01 01:36:45;;;;;;;3.38;2.67;;;2.80;66.80;;;;;;5082436;28;20032;-57
2022/12/01 01:39:10;;;;;;;3.45;2.50;;;2.70;67.00;;;;;;5080086;28;20039;-57
2022/12/01 01:41:36;;;;;;;3.40;2.60;;;2.80;67.20;;;;;;5089372;28;20031;-57
2022/12/01 01:44:03;;;;;;;3.15;2.50;;;2.80;67.10;;;;;;5089664;28;20057;-57
2022/12/01 01:46:33;;;;;;;4.43;2.90;;;2.80;66.90;;;;;;5085569;28;20132;-57
2022/12/01 01:49:01;;;;;;;3.35;2.67;;;2.80;66.90;;;;;;5089203;28;20031;-56
2022/12/01 01:51:50;;;;;;;2.55;2.35;;;2.80;67.70;;;;;;5079129;28;20033;-58
2022/12/01 01:54:34;;;;;;;2.95;2.50;;;2.80;66.90;;;;;;5070901;28;20029;-57
2022/12/01 01:57:01;;;;;;;3.00;2.63;;;2.80;66.80;;;;;;5082453;28;20058;-56
2022/12/01 01:59:48;;;;;;;3.33;2.60;;;2.80;67.00;;;;;;5083109;28;20391;-57
2022/12/01 02:02:14;;;;;;;2.60;2.40;;;2.80;66.90;;;;;;5086963;28;20020;-56
2022/12/01 02:04:46;;;;;;;3.65;2.60;;;2.80;66.90;;;;;;5089500;28;20071;-56
2022/12/01 02:07:14;;;;;;;;;;;2.80;66.90;;;;;;5086557;28;20103;-56
2022/12/01 02:09:40;;;;;;;2.55;2.35;;;2.70;66.50;;;;;;5086386;28;19916;-56
2022/12/01 02:12:21;;;;;;;3.25;2.63;;;2.70;66.70;;;;;;5089090;28;20027;-57
2022/12/01 02:14:56;;;;;;;;;;;2.70;66.90;;;;;;5081972;28;20036;-56
2022/12/01 02:17:45;;;;;;;5.05;2.47;;;2.60;66.70;;;;;;5084588;28;20354;-56
2022/12/01 02:20:37;;;;;;;2.65;2.40;;;2.60;66.60;;;;;;5079738;28;20039;-57
2022/12/01 02:23:29;;;;;;;4.32;2.85;;;2.60;66.60;;;;;;5087353;28;20047;-57
2022/12/01 02:26:16;;;;;;;3.88;2.72;;;2.60;66.50;;;;;;5081754;28;20490;-57
2022/12/01 02:29:04;;;;;;;2.70;2.50;;;2.50;66.70;;;;;;5086218;28;20471;-58
2022/12/01 02:31:59;;;;;;;3.33;2.80;;;2.50;66.60;;;;;;5087956;28;20693;-57
2022/12/01 02:34:35;;;;;;;2.70;2.50;;;2.50;66.50;;;;;;5084849;28;20471;-56
2022/12/01 02:37:17;;;;;;;4.78;2.97;;;2.50;66.50;;;;;;5082029;28;20028;-56
2022/12/01 02:40:11;;;;;;;2.65;2.45;;;2.50;66.70;;;;;;5082519;28;20028;-56
2022/12/01 02:43:02;;;;;;;4.20;2.88;;;2.50;66.70;;;;;;5069943;28;20031;-57
2022/12/01 02:45:57;;;;;;;3.53;2.92;;;2.50;66.70;;;;;;5085205;28;20067;-58
2022/12/01 02:48:32;;;;;;;2.85;2.55;;;2.50;66.50;;;;;;5055065;28;20032;-57
2022/12/01 02:51:10;;;;;;;4.55;2.70;;;2.50;66.50;;;;;;5080858;28;20360;-54
2022/12/01 02:53:37;;;;;;;3.00;2.60;;;2.50;66.50;;;;;;5084265;28;20039;-55
2022/12/01 02:56:08;;;;;;;3.10;2.60;;;2.50;66.70;;;;;;5082955;28;20168;-57
2022/12/01 02:58:40;;;;;;;3.22;2.55;;;2.50;66.60;;;;;;5072277;28;20487;-56
2022/12/01 03:01:34;;;;;;;3.88;2.58;;;2.50;66.50;;;;;;5087582;28;20036;-57
2022/12/01 03:04:24;;;;;;;2.92;2.60;;;2.50;66.60;;;;;;5085913;28;20305;-57
2022/12/01 03:07:00;;;;;;;3.05;2.60;;;2.50;66.60;;;;;;5086618;28;20047;-56
2022/12/01 03:10:03;;;;;;;2.47;2.30;;;2.50;66.50;;;;;;5085068;28;20099;-58
2022/12/01 03:12:53;;;;;;;2.78;2.50;;;2.50;66.70;;;;;;5087883;28;20028;-57
2022/12/01 03:15:28;;;;;;;3.08;2.47;;;2.50;66.80;;;;;;5087508;28;20916;-58
2022/12/01 03:18:18;;;;;;;2.70;2.50;;;2.50;66.70;;;;;;5080020;28;20375;-56
2022/12/01 03:21:02;;;;;;;2.50;2.30;;;2.50;66.50;;;;;;5083109;28;20039;-56
2022/12/01 03:23:32;;;;;;;2.53;2.33;;;2.50;66.30;;;;;;5077406;28;20348;-57
2022/12/01 03:26:02;;;;;;;2.63;2.40;;;2.50;66.40;;;;;;5084893;28;20491;-57
2022/12/01 03:28:35;;;;;;;2.17;2.00;;;2.50;66.30;;;;;;5084261;28;20064;-56
2022/12/01 03:31:06;;;;;;;2.80;2.60;;;2.60;66.30;;;;;;5090262;28;20032;-56
2022/12/01 03:33:37;;;;;;;3.28;2.65;;;2.60;66.10;;;;;;5089661;28;20441;-57
2022/12/01 03:36:28;;;;;;;2.42;2.22;;;2.60;66.10;;;;;;5092403;28;20046;-57
2022/12/01 03:38:59;;;;;;;2.88;2.45;;;2.60;65.80;;;;;;5078098;28;20570;-57
2022/12/01 03:41:30;;;;;;;3.90;2.70;;;2.60;66.10;;;;;;5085909;28;20047;-57
2022/12/01 03:44:07;;;;;;;3.63;2.60;;;2.50;65.90;;;;;;5084049;28;20088;-56
2022/12/01 03:46:41;;;;;;;2.70;2.30;;;2.60;65.70;;;;;;5089932;28;20382;-57
2022/12/01 03:49:08;;;;;;;3.08;2.42;;;2.50;65.90;;;;;;5088491;28;20487;-55
2022/12/01 03:51:59;;;;;;;2.92;2.30;;;2.50;65.90;;;;;;5084466;28;20113;-56
2022/12/01 03:54:39;;;;;;;3.00;2.50;;;2.50;65.80;;;;;;5077466;28;20032;-56
2022/12/01 03:57:10;;;;;;;2.80;2.40;;;2.50;65.70;;;;;;5089352;28;20020;-57
2022/12/01 03:59:38;;;;;;;3.88;3.00;;;2.50;65.60;;;;;;5090663;28;20023;-57
2022/12/01 04:02:07;;;;;;;2.55;2.35;;;2.50;65.50;;;;;;5085485;28;20138;-57
2022/12/01 04:04:33;;;;;;;3.00;2.70;;;2.50;65.30;;;;;;5089467;28;20032;-56
2022/12/01 04:06:59;;;;;;;3.75;2.50;;;2.40;65.30;;;;;;5090572;28;20023;-56
2022/12/01 04:09:25;;;;;;;3.47;2.50;;;2.40;65.40;;;;;;5090222;28;20382;-57
2022/12/01 04:14:35;;;;;;;2.72;2.53;;;2.40;65.30;;;;;;5080750;28;20028;-57
2022/12/01 04:17:01;;;;;;;2.50;2.30;;;2.40;65.10;;;;;;5085461;28;20467;-55
2022/12/01 04:19:51;;;;;;;2.55;2.35;;;2.40;65.40;;;;;;5090990;28;20028;-57
2022/12/01 04:22:18;;;;;;;4.72;2.70;;;2.40;65.30;;;;;;5089434;28;20078;-55
2022/12/01 04:24:44;;;;;;;2.85;2.50;;;2.50;65.00;;;;;;5088131;28;20029;-56
2022/12/01 04:27:10;;;;;;;2.80;2.60;;;2.50;65.00;;;;;;5085235;28;20469;-56
2022/12/01 04:29:35;;;;;;;2.33;2.13;;;2.50;64.90;;;;;;5090770;28;20016;-57
2022/12/01 04:32:01;;;;;;;2.50;2.30;;;2.50;65.00;;;;;;5089859;28;20055;-58
2022/12/01 04:34:30;;;;;;;2.28;2.05;;;2.60;64.70;;;;;;5090805;28;20115;-57
2022/12/01 04:36:56;;;;;;;3.15;2.40;;;2.50;65.00;;;;;;5085742;28;20095;-56
2022/12/01 04:39:22;;;;;;;2.88;2.60;;;2.50;64.90;;;;;;5090110;28;20124;-56
2022/12/01 04:41:48;;;;;;;3.17;2.60;;;2.50;65.00;;;;;;5088891;28;20408;-57
2022/12/01 04:44:14;;;;;;;3.30;2.50;;;2.50;64.80;;;;;;5091219;28;20470;-57
2022/12/01 04:46:40;;;;;;;4.57;2.38;;;2.50;65.00;;;;;;5089830;28;20028;-58
2022/12/01 04:49:06;;;;;;;2.70;2.40;;;2.50;64.80;;;;;;5087290;28;20028;-56
2022/12/01 04:51:32;;;;;;;2.45;2.25;;;2.40;64.70;;;;;;5087657;28;20054;-57
2022/12/01 04:53:58;;;;;;;4.38;2.83;;;2.50;64.80;;;;;;5074052;28;20048;-56
2022/12/01 04:56:23;;;;;;;2.35;2.15;;;2.40;64.70;;;;;;5080110;28;20043;-58
2022/12/01 04:58:49;;;;;;;3.13;2.40;;;2.50;65.60;;;;;;5080253;28;20372;-57
2022/12/01 05:01:17;;;;;;;2.88;2.53;;;2.40;64.90;;;;;;5063261;28;20035;-57
2022/12/01 05:03:48;;;;;;;2.92;2.58;;;2.40;64.60;;;;;;5089323;28;20568;-57
2022/12/01 05:06:19;;;;;;;3.17;2.70;;;2.40;64.80;;;;;;5087089;28;20449;-56
2022/12/01 05:08:46;;;;;;;2.60;2.40;;;2.40;64.70;;;;;;5084332;28;20271;-57
2022/12/01 05:11:13;;;;;;;2.50;2.30;;;2.40;64.90;;;;;;5088877;28;20526;-57
2022/12/01 05:13:40;;;;;;;2.80;2.33;;;2.40;64.70;;;;;;5088429;28;20028;-56
2022/12/01 05:16:09;;;;;;;2.33;2.22;;;2.40;64.80;;;;;;5090756;28;20093;-58
2022/12/01 05:18:34;;;;;;;2.88;2.60;;;2.40;64.70;;;;;;5089067;28;20032;-58
2022/12/01 05:21:02;;;;;;;3.38;2.40;;;2.50;64.80;;;;;;5089530;28;20446;-58
2022/12/01 05:23:34;;;;;;;3.63;2.53;;;2.50;64.80;;;;;;5084728;28;20040;-58
2022/12/01 05:26:01;;;;;;;3.38;2.45;;;2.40;64.50;;;;;;5089055;28;20115;-58
2022/12/01 05:28:28;;;;;;;2.63;2.40;;;2.40;64.60;;;;;;5086956;28;20376;-58
2022/12/01 05:30:55;;;;;;;2.60;2.38;;;2.40;64.60;;;;;;5089835;28;20043;-58
2022/12/01 05:33:22;;;;;;;2.58;2.38;;;2.40;64.70;;;;;;5087758;28;20043;-58
2022/12/01 05:35:49;;;;;;;3.08;2.55;;;2.40;64.80;;;;;;5089492;28;20024;-58
2022/12/01 05:38:15;;;;;;;2.53;2.33;;;2.40;64.80;;;;;;5085943;28;20031;-58
2022/12/01 05:40:41;;;;;;;3.15;2.50;;;2.40;64.70;;;;;;5088067;28;20036;-58
2022/12/01 05:43:07;;;;;;;2.40;2.20;;;2.40;65.00;;;;;;5086689;28;20720;-58
2022/12/01 05:45:35;;;;;;;2.45;2.25;;;2.50;65.10;;;;;;5084671;28;20024;-58
2022/12/01 05:48:01;;;;;;;2.90;2.10;;;2.50;65.10;;;;;;5087063;28;20080;-58
2022/12/01 05:50:29;;;;;;;2.63;2.10;;;2.60;64.90;;;;;;5086541;28;20028;-58
2022/12/01 05:52:55;;;;;;;2.35;2.15;;;2.70;65.00;;;;;;5088017;28;20100;-58
2022/12/01 05:55:21;;;;;;;2.50;2.30;;;2.70;64.80;;;;;;5083083;28;20080;-58
2022/12/01 05:57:47;;;;;;;2.55;2.28;;;2.80;64.80;;;;;;5084221;28;20059;-58
2022/12/01 06:00:14;;;;;;;2.38;2.17;;;2.80;64.40;;;;;;5084775;28;21379;-58
2022/12/01 06:02:41;;;;;;;2.75;2.47;;;2.90;65.00;;;;;;5079514;28;20050;-57
2022/12/01 06:05:08;;;;;;;4.15;2.50;;;2.90;64.30;;;;;;5073360;28;20107;-57
2022/12/01 06:07:34;;;;;;;2.40;2.20;;;2.90;64.00;;;;;;5083543;28;20028;-58
2022/12/01 06:10:01;;;;;;;2.70;2.50;;;2.90;63.90;;;;;;5082780;28;20475;-56
2022/12/01 06:12:26;;;;;;;2.75;2.30;;;2.90;64.00;;;;;;5082877;28;20091;-58
2022/12/01 06:14:52;;;;;;;3.50;2.50;;;2.80;63.70;;;;;;5080391;28;20112;-56
2022/12/01 06:17:18;;;;;;;2.50;2.30;;;2.80;63.80;;;;;;5082346;28;20506;-56
2022/12/01 06:19:46;;;;;;;2.63;2.42;;;2.80;63.80;;;;;;5082022;28;20028;-62
2022/12/01 06:22:12;;;;;;;2.33;2.13;;;2.70;63.90;;;;;;5079108;28;20040;-58
2022/12/01 06:24:38;;;;;;;2.63;2.05;;;2.70;64.00;;;;;;5082895;28;20038;-58
2022/12/01 06:27:04;;;;;;;2.80;2.38;;;2.70;64.00;;;;;;5077621;28;20032;-58
2022/12/01 06:29:29;;;;;;;2.53;2.30;;;2.70;64.00;;;;;;5078118;28;20059;-58
2022/12/01 06:31:55;;;;;;;2.25;2.05;;;2.70;64.00;;;;;;5082498;28;20030;-60
2022/12/01 06:34:21;;;;;;;2.17;2.00;;;2.70;64.10;;;;;;5078404;28;20021;-58
2022/12/01 06:36:47;;;;;;;3.53;2.75;;;2.80;64.20;;;;;;5082531;28;20020;-58
2022/12/01 06:39:16;;;;;;;2.33;2.20;;;2.80;64.10;;;;;;5083698;28;20028;-58
2022/12/01 06:41:42;;;;;;;2.58;2.38;;;2.80;63.60;;;;;;5079008;28;20035;-58
2022/12/01 06:44:09;;;;;;;3.58;2.20;;;2.80;63.90;;;;;;5075759;28;20025;-58
2022/12/01 06:46:35;;;;;;;1.92;1.83;;;2.70;63.80;;;;;;5077520;28;20555;-58
2022/12/01 06:49:01;;;;;;;5.75;2.50;;;2.70;63.90;;;;;;5077632;28;20025;-58
2022/12/01 06:51:27;;;;;;;2.42;2.22;;;2.70;64.10;;;;;;5076137;28;20027;-58
2022/12/01 06:53:56;;;;;;;3.28;2.38;;;2.70;63.80;;;;;;5075422;28;20035;-58
2022/12/01 06:56:22;;;;;;;2.60;2.40;;;2.70;64.20;;;;;;5074595;28;20067;-58
2022/12/01 06:58:49;;;;;;;3.10;2.38;;;2.70;64.10;;;;;;5072949;28;20028;-58
2022/12/01 07:01:15;;;;;;;3.35;2.60;;;2.70;63.80;;;;;;5073111;28;20059;-59
2022/12/01 07:03:41;;;;;;;2.38;2.20;;;2.70;63.80;;;;;;5072571;28;20800;-58
2022/12/01 07:06:08;;;;;;;2.45;2.25;;;2.70;63.90;;;;;;5075829;28;20551;-59
2022/12/01 07:08:34;;;;;;;3.22;2.60;;;2.70;63.80;;;;;;5044942;28;20119;-59
2022/12/01 07:11:06;;;;;;;2.60;2.20;;;2.70;63.80;;;;;;5063075;28;20910;-59
2022/12/01 07:13:32;;;;;;;2.60;2.40;;;2.70;63.80;;;;;;5058861;28;20032;-59
2022/12/01 07:15:58;;;;;;;3.22;2.42;;;2.70;64.00;;;;;;5066737;28;20036;-58
2022/12/01 07:18:24;;;;;;;3.20;2.45;;;2.70;64.00;;;;;;5071978;28;20932;-59
2022/12/01 07:20:50;;;;;;;2.30;2.10;;;2.70;64.10;;;;;;5074310;28;20028;-59
2022/12/01 07:23:15;;;;;;;3.00;2.70;;;2.70;63.90;;;;;;5070172;28;20083;-59
2022/12/01 07:25:41;;;;;;;2.85;2.55;;;2.80;63.80;;;;;;5070787;28;20089;-59
2022/12/01 07:28:07;;;;;;;2.97;2.45;;;2.80;63.80;;;;;;5073715;28;20036;-59
2022/12/01 07:30:33;;;;;;;2.70;2.50;;;2.80;63.80;;;;;;5072662;28;20497;-59
2022/12/01 07:32:59;;;;;;;2.60;2.40;;;2.80;63.90;;;;;;5074360;28;20047;-58
2022/12/01 07:35:27;;;;;;;3.72;2.38;;;2.80;63.90;;;;;;5074323;28;20094;-59
2022/12/01 07:37:56;;;;;;;2.67;2.30;;;2.90;63.80;;;;;;5071322;28;20097;-59
2022/12/01 07:43:59;;;;;;;3.42;2.47;;;2.90;64.10;;;;;;5057293;28;20028;-60
2022/12/01 07:46:30;;;;;;;2.92;2.20;;;3.00;63.70;;;;;;5063747;28;20028;-59
2022/12/01 07:48:56;;;;;;;3.42;2.60;;;3.00;63.70;;;;;;5068400;28;20043;-59
2022/12/01 07:51:24;;;;;;;2.17;2.08;;;3.10;63.60;;;;;;5072465;28;20355;-61
2022/12/01 07:53:51;;;;;;;2.72;2.53;;;3.10;63.70;;;;;;5064564;28;20048;-60
2022/12/01 07:56:18;;;;;;;2.75;2.30;;;3.20;63.50;;;;;;5066563;28;20544;-60
2022/12/01 07:58:44;;;;;;;5.35;2.70;;;3.30;63.40;;;;;;5066937;28;20026;-59
2022/12/01 08:01:16;;;;;;;2.70;2.45;;;3.30;63.30;;;;;;5064482;28;20024;-60
2022/12/01 08:03:43;;;;;;;3.15;2.50;;;3.30;62.90;;;;;;5070087;28;20039;-58
2022/12/01 08:06:09;;;;;;;2.72;2.30;;;3.30;63.10;;;;;;5067468;28;20713;-57
2022/12/01 08:08:38;;;;;;;2.42;2.22;;;3.30;63.40;;;;;;5067014;28;20028;-59
2022/12/01 08:11:06;;;;;;;2.72;2.38;;;3.30;63.40;;;;;;5069425;28;20046;-57
2022/12/01 08:13:33;;;;;;;3.20;2.70;;;3.40;63.20;;;;;;5068587;28;20020;-59
2022/12/01 08:16:03;;;;;;;3.00;2.55;;;3.40;62.80;;;;;;5059202;28;20028;-58
2022/12/01 08:18:29;;;;;;;2.83;2.63;;;3.40;62.80;;;;;;5069933;28;20028;-59
2022/12/01 08:20:57;;;;;;;3.45;2.95;;;3.30;63.30;;;;;;5061516;28;20563;-57
2022/12/01 08:23:23;;;;;;;2.55;2.35;;;3.30;63.50;;;;;;5067297;28;20051;-59
2022/12/01 08:25:51;;;;;;;2.83;2.45;;;3.30;63.30;;;;;;5069872;28;20039;-57
2022/12/01 08:28:17;;;;;;;5.28;2.60;;;3.40;63.60;;;;;;5029903;28;20031;-59
2022/12/01 08:30:43;;;;;;;2.70;2.40;;;3.40;63.40;;;;;;5066449;28;20031;-58
2022/12/01 08:33:09;;;;;;;3.63;2.60;;;3.40;63.40;;;;;;5063057;28;20040;-59
2022/12/01 08:35:36;;;;;;;3.97;2.78;;;3.40;63.30;;;;;;5066282;28;20054;-58
2022/12/01 08:38:02;;;;;;;4.70;2.58;;;3.40;63.20;;;;;;5060673;28;21864;-57
2022/12/01 08:40:28;;;;;;;4.28;2.60;;;3.40;63.20;;;;;;5069356;28;20032;-59
2022/12/01 08:42:54;;;;;;;2.80;2.50;;;3.40;63.20;;;;;;5061974;28;20031;-59
2022/12/01 08:45:21;;;;;;;2.67;2.30;;;3.40;63.30;;;;;;5066673;28;20036;-58
2022/12/01 08:47:48;;;;;;;3.47;2.38;;;3.40;63.20;;;;;;5058506;28;20078;-58
2022/12/01 08:50:14;;;;;;;3.28;2.60;;;3.40;63.30;;;;;;5058882;28;20064;-59
2022/12/01 08:52:44;;;;;;;3.67;2.90;;;3.40;63.30;;;;;;5066921;28;20852;-59
2022/12/01 08:55:10;;;;;;;2.45;2.25;;;3.40;63.30;;;;;;5064834;28;20377;-59
2022/12/01 08:57:36;;;;;;;3.13;2.53;;;3.40;63.10;;;;;;5054003;28;20039;-60
2022/12/01 09:00:03;;;;;;;3.33;2.63;;;3.30;63.20;;;;;;5060661;28;21116;-59
2022/12/01 09:02:29;;;;;;;3.00;2.40;;;3.40;63.30;;;;;;5046991;28;20032;-59
2022/12/01 09:04:55;;;;;;;2.75;2.40;;;3.30;63.10;;;;;;5056454;28;21380;-58
2022/12/01 09:07:20;;;;;;;3.17;2.58;;;3.30;63.30;;;;;;5068103;28;20024;-59
2022/12/01 09:09:46;;;;;;;4.47;2.60;;;3.30;63.50;;;;;;5069410;28;20031;-59
2022/12/01 09:12:13;;;;;;;3.75;2.80;;;3.40;63.30;;;;;;5065734;28;20024;-59
2022/12/01 09:14:42;;;;;;;2.60;2.40;;;3.30;63.20;;;;;;5062729;28;22018;-60
2022/12/01 09:17:08;;;;;;;3.88;2.80;;;3.30;63.30;;;;;;5051682;28;20032;-59
2022/12/01 09:19:34;;;;;;;3.10;2.45;;;3.30;63.30;;;;;;5058829;28;20066;-58
2022/12/01 09:22:01;;;;;;;3.08;2.50;;;3.20;63.30;;;;;;5058803;28;20044;-58
2022/12/01 09:24:27;;;;;;;2.95;2.45;;;3.20;63.40;;;;;;5054942;28;20038;-58
2022/12/01 09:26:57;;;;;;;3.35;2.60;;;3.20;63.50;;;;;;5057295;28;20043;-59
2022/12/01 09:29:24;;;;;;;3.50;2.50;;;3.20;63.50;;;;;;5056326;28;20107;-59
2022/12/01 09:31:49;;;;;;;3.17;2.60;;;3.20;63.60;;;;;;5051438;28;20058;-58
2022/12/01 09:34:18;;;;;;;3.45;2.60;;;3.20;63.70;;;;;;5062118;28;20151;-56
2022/12/01 09:36:45;;;;;;;2.60;2.40;;;3.20;63.80;;;;;;5065468;28;20052;-57
2022/12/01 09:39:13;;;;;;;2.60;2.40;;;3.20;63.60;;;;;;5059117;28;20107;-58
2022/12/01 09:42:03;;;;;;;3.88;2.50;;;3.30;63.90;;;;;;5056383;28;20028;-58
2022/12/01 09:44:44;;;;;;;3.13;2.65;;;3.30;63.70;;;;;;5054374;28;20482;-59
2022/12/01 09:47:17;;;;;;;3.28;2.45;;;3.30;63.70;;;;;;5059515;28;20024;-55
2022/12/01 09:49:59;;;;;;;3.50;2.63;;;3.30;63.60;;;;;;5061791;28;20103;-58
2022/12/01 09:52:28;;;;;;;2.63;2.42;;;3.40;63.50;;;;;;5059731;28;20039;-59
2022/12/01 09:54:57;;;;;;;3.00;2.60;;;3.30;63.40;;;;;;5052959;28;20039;-58
2022/12/01 09:57:35;;;;;;;3.05;2.60;;;3.30;63.50;;;;;;5059789;28;20035;-58
2022/12/01 10:00:05;;;;;;;2.58;2.30;;;3.40;63.60;;;;;;5048358;28;20040;-60
2022/12/01 10:02:50;;;;;;;4.65;2.75;;;3.40;63.60;;;;;;5057811;28;20025;-59
2022/12/01 10:05:23;;;;;;;2.00;1.90;;;3.50;63.60;;;;;;5053331;28;20112;-57
2022/12/01 10:07:52;;;;;;;4.93;2.70;;;3.50;63.80;;;;;;5054324;28;20043;-58
2022/12/01 10:10:46;;;;;;;3.08;2.25;;;3.60;63.20;;;;;;5049916;28;20055;-59
2022/12/01 10:13:22;;;;;;;2.67;2.47;;;3.60;63.10;;;;;;5055669;28;20032;-57
2022/12/01 10:15:54;;;;;;;4.43;2.45;;;3.70;63.00;;;;;;5061739;28;20024;-60
2022/12/01 10:18:22;;;;;;;3.72;2.50;;;3.60;63.00;;;;;;5062632;28;20116;-57
2022/12/01 10:21:15;;;;;;;5.30;2.78;;;3.50;63.10;;;;;;5058693;28;20029;-58
2022/12/01 10:24:12;;;;;;;2.40;2.20;;;3.50;63.30;;;;;;5062101;28;20875;-59
2022/12/01 10:26:59;;;;;;;4.15;3.13;;;3.50;63.50;;;;;;5051133;28;20626;-60
2022/12/01 10:29:44;;;;;;;2.67;2.47;;;3.60;63.50;;;;;;5064346;28;21890;-60
2022/12/01 10:32:17;;;;;;;3.97;2.67;;;3.60;63.10;;;;;;5060376;28;20725;-61
2022/12/01 10:34:45;;;;;;;2.30;2.10;;;3.60;63.00;;;;;;5059691;28;20024;-60
2022/12/01 10:37:27;;;;;;;2.60;2.40;;;3.60;63.30;;;;;;5064087;28;20024;-59
2022/12/01 10:39:55;;;;;;;2.58;2.38;;;3.60;63.30;;;;;;5070843;28;20448;-61
2022/12/01 10:42:49;;;;;;;3.70;2.40;;;3.60;62.80;;;;;;5065546;28;20020;-59
2022/12/01 10:45:23;;;;;;;3.70;2.60;;;3.60;62.80;;;;;;5064819;28;20040;-64
2022/12/01 10:48:15;;;;;;;3.20;2.53;;;3.60;62.80;;;;;;5067765;28;20029;-62
2022/12/01 10:50:46;;;;;;;3.00;2.40;;;3.60;63.00;;;;;;5065790;28;20036;-59
2022/12/01 10:53:26;;;;;;;2.92;2.22;;;3.50;63.10;;;;;;5056139;28;20068;-61
2022/12/01 10:56:08;;;;;;;2.97;2.67;;;3.50;63.30;;;;;;5062381;28;20032;-61
2022/12/01 10:58:45;;;;;;;3.97;2.47;;;3.50;63.40;;;;;;5052855;28;20021;-58
2022/12/01 11:01:17;;;;;;;4.10;2.45;;;3.60;63.40;;;;;;5042008;28;20874;-58
2022/12/01 11:03:48;;;;;;;2.67;2.33;;;3.70;63.40;;;;;;5048666;28;20055;-59
2022/12/01 11:06:19;;;;;;;2.70;2.30;;;3.70;63.40;;;;;;5053255;28;20084;-58
2022/12/01 11:08:51;;;;;;;3.28;2.55;;;3.80;63.30;;;;;;5058026;28;20733;-59
2022/12/01 11:11:34;;;;;;;4.95;2.63;;;3.80;63.10;;;;;;5051703;28;20032;-58
2022/12/01 11:14:14;;;;;;;2.42;2.22;;;3.90;63.20;;;;;;5051499;28;20123;-59
2022/12/01 11:16:45;;;;;;;2.70;2.47;;;4.00;62.90;;;;;;5058003;28;20030;-59
2022/12/01 11:19:31;;;;;;;2.60;2.40;;;4.00;62.90;;;;;;5057023;28;20457;-58
2022/12/01 11:22:00;;;;;;;2.70;2.50;;;4.10;62.90;;;;;;5057738;28;21770;-59
2022/12/01 11:24:31;;;;;;;3.40;2.38;;;4.20;62.70;;;;;;5052823;28;20449;-60
2022/12/01 11:26:58;;;;;;;2.63;2.40;;;4.20;62.60;;;;;;5055695;28;20035;-59
2022/12/01 11:29:36;;;;;;;2.63;2.38;;;4.30;62.30;;;;;;5044358;28;20024;-59
2022/12/01 11:32:25;;;;;;;2.90;2.33;;;4.30;62.00;;;;;;5046813;28;20067;-59
2022/12/01 11:35:13;;;;;;;2.45;2.28;;;4.30;61.90;;;;;;5063758;28;20086;-59
2022/12/01 11:37:45;;;;;;;2.30;2.20;;;4.20;61.80;;;;;;5047752;28;20035;-60
2022/12/01 11:40:24;;;;;;;3.20;2.40;;;4.20;61.70;;;;;;5049581;28;20573;-58
2022/12/01 11:42:52;;;;;;;2.38;2.13;;;4.20;61.40;;;;;;5041445;28;20151;-57
2022/12/01 11:45:20;;;;;;;3.58;2.45;;;4.10;61.40;;;;;;5049428;28;20028;-59
2022/12/01 11:48:21;;;;;;;3.13;2.58;;;4.00;61.30;;;;;;5039602;28;20024;-57
2022/12/01 11:51:16;;;;;;;3.37;2.37;;;4.00;61.50;;;;;;5053132;28;20057;-58
2022/12/01 11:53:42;;;;;;;2.22;2.05;;;3.90;61.40;;;;;;5033363;28;20036;-58
2022/12/01 11:56:38;;;;;;;2.38;2.17;;;4.00;61.60;;;;;;5050883;28;20043;-58
2022/12/01 11:59:10;;;;;;;2.50;2.30;;;4.00;61.50;;;;;;5030522;28;20044;-57
2022/12/01 12:01:48;;;;;;;3.67;2.47;;;4.10;61.50;;;;;;5054147;28;20652;-57
2022/12/01 12:04:32;;;;;;;2.95;2.50;;;4.10;61.40;;;;;;5055517;28;20817;-56
2022/12/01 12:07:03;;;;;;;4.20;2.90;;;4.10;61.00;;;;;;5059172;28;20028;-57
2022/12/01 12:09:44;;;;;;;5.32;2.63;;;4.10;61.10;;;;;;5061605;28;20098;-57
2022/12/01 12:12:44;;;;;;;2.50;2.30;;;4.20;61.20;;;;;;5050459;28;20446;-57
2022/12/01 12:15:13;;;;;;;3.03;2.58;;;4.10;60.80;;;;;;5059253;28;20024;-57
2022/12/01 12:18:04;;;;;;;2.47;2.20;;;4.10;61.00;;;;;;5055818;28;20653;-60
2022/12/01 12:20:52;;;;;;;2.58;2.38;;;4.10;60.80;;;;;;5058167;28;20024;-59
2022/12/01 12:23:51;;;;;;;2.40;2.20;;;4.10;60.70;;;;;;5038654;28;22588;-58
2022/12/01 12:26:27;;;;;;;2.70;2.28;;;4.10;60.70;;;;;;5063905;28;20047;-58
2022/12/01 12:29:17;;;;;;;3.90;2.20;;;4.10;60.80;;;;;;5066522;28;20028;-58
2022/12/01 12:32:20;;;;;;;2.78;2.22;;;4.00;60.70;;;;;;5058522;28;20031;-57
2022/12/01 12:35:05;;;;;;;2.30;2.10;;;4.00;60.50;;;;;;5040968;28;20024;-58
2022/12/01 12:37:46;;;;;;;2.55;2.30;;;4.00;60.50;;;;;;5060121;28;20248;-58
2022/12/01 12:40:32;;;;;;;3.80;2.60;;;4.00;60.70;;;;;;5055028;28;20031;-57
2022/12/01 12:43:02;;;;;;;2.40;2.20;;;4.10;60.70;;;;;;5058354;28;20063;-58
2022/12/01 12:45:38;;;;;;;2.80;2.60;;;4.10;60.60;;;;;;5057107;28;20395;-56
2022/12/01 12:48:22;;;;;;;2.60;2.40;;;4.10;60.60;;;;;;5054582;28;20043;-58
2022/12/01 12:51:09;;;;;;;3.00;2.65;;;4.10;60.40;;;;;;5058211;28;20031;-58
2022/12/01 12:53:58;;;;;;;3.25;2.50;;;4.10;60.30;;;;;;5054853;28;20036;-57
2022/12/01 12:56:26;;;;;;;2.42;2.22;;;4.10;60.30;;;;;;5048507;28;20639;-57
2022/12/01 12:59:08;;;;;;;3.10;2.38;;;4.00;60.00;;;;;;5051652;28;20033;-57
2022/12/01 13:02:14;;;;;;;2.60;2.40;;;4.00;60.20;;;;;;5041311;28;20036;-58
2022/12/01 13:07:41;;;;;;;3.15;2.20;;;3.90;59.30;;;;;;5025253;28;20594;-57
2022/12/01 13:10:31;;;;;;;2.50;2.13;;;4.00;60.40;;;;;;5024044;28;20968;-56
2022/12/01 13:13:22;;;;;;;2.03;1.92;;;4.00;60.40;;;;;;5029121;28;20039;-58
2022/12/01 13:15:51;;;;;;;2.83;2.30;;;4.00;60.20;;;;;;5022058;28;20032;-57
2022/12/01 13:18:29;;;;;;;2.53;2.17;;;4.10;60.10;;;;;;5021738;28;20033;-57
2022/12/01 13:20:56;;;;;;;2.15;1.90;;;4.20;60.00;;;;;;5029672;28;20145;-58
2022/12/01 13:23:23;;;;;;;2.00;1.90;;;4.20;59.60;;;;;;5028310;28;20887;-58
2022/12/01 13:25:52;;;;;;;2.05;1.90;;;4.20;59.50;;;;;;5024562;28;20699;-56
2022/12/01 13:28:41;;;;;;;2.40;2.20;;;4.20;59.40;;;;;;5017072;28;20026;-59
2022/12/01 13:31:12;;;;;;;2.50;2.30;;;4.10;59.40;;;;;;5018780;28;20737;-57
2022/12/01 13:33:45;;;;;;;1.85;1.75;;;4.10;59.20;;;;;;5017346;28;21142;-57